Time;durP1;ratioP1;P1;durP2;ratioP2;P2;SDS_P1;SDS_P2;PMS_P1;PMS_P2;Temp;Humidity;BMP_temperature;BMP_pressure;BME280_temperature;BME280_humidity;BME280_pressure;Samples;Min_cycle;Max_cycle;Signal;HPM_P1;HPM_P2
2022/09/01 00:00:07;;;;;;;5.05;1.50;;;15.70;93.30;;;;;;5030553;28;20099;-42
2022/09/01 00:02:34;;;;;;;3.92;1.33;;;15.60;93.40;;;;;;5048504;28;20515;-48
2022/09/01 00:05:03;;;;;;;3.30;1.55;;;15.60;93.10;;;;;;5050054;28;20124;-42
2022/09/01 00:07:30;;;;;;;4.32;1.60;;;15.60;93.10;;;;;;5045661;28;20083;-45
2022/09/01 00:09:57;;;;;;;3.13;1.65;;;15.50;93.60;;;;;;5050453;28;20132;-45
2022/09/01 00:12:25;;;;;;;3.83;1.50;;;15.50;93.60;;;;;;5052896;28;20489;-47
2022/09/01 00:14:52;;;;;;;4.72;1.55;;;15.50;93.90;;;;;;5048991;28;20083;-47
2022/09/01 00:17:18;;;;;;;4.20;1.80;;;15.50;93.80;;;;;;5043787;28;20049;-47
2022/09/01 00:19:45;;;;;;;4.50;1.55;;;15.40;93.70;;;;;;5041288;28;20106;-44
2022/09/01 00:22:12;;;;;;;5.70;1.70;;;15.40;93.40;;;;;;5052470;28;20120;-47
2022/09/01 00:24:40;;;;;;;4.38;1.33;;;15.40;94.10;;;;;;5049717;28;20449;-44
2022/09/01 00:27:07;;;;;;;5.85;1.35;;;15.30;93.50;;;;;;5035208;28;20087;-47
2022/09/01 00:29:35;;;;;;;3.13;1.30;;;15.30;93.20;;;;;;5050792;28;20133;-45
2022/09/01 00:32:02;;;;;;;5.25;1.50;;;15.30;93.20;;;;;;5035381;28;20131;-49
2022/09/01 00:34:28;;;;;;;2.75;1.10;;;15.30;93.00;;;;;;5049781;28;20458;-44
2022/09/01 00:36:55;;;;;;;3.65;1.10;;;15.30;93.00;;;;;;5033473;28;20524;-44
2022/09/01 00:39:22;;;;;;;4.32;1.30;;;15.30;92.70;;;;;;5051660;28;20397;-47
2022/09/01 00:41:50;;;;;;;3.92;1.35;;;15.30;92.70;;;;;;5034774;28;20084;-47
2022/09/01 00:44:22;;;;;;;3.65;1.48;;;15.20;92.80;;;;;;5049410;28;20044;-38
2022/09/01 00:46:50;;;;;;;6.13;1.38;;;15.20;93.10;;;;;;5050993;28;20515;-48
2022/09/01 00:49:18;;;;;;;2.97;1.20;;;15.10;93.10;;;;;;5049732;28;20110;-49
2022/09/01 00:51:47;;;;;;;2.53;1.23;;;15.10;93.10;;;;;;5052096;28;20760;-43
2022/09/01 00:54:16;;;;;;;1.70;1.10;;;15.10;92.90;;;;;;5033555;28;20055;-43
2022/09/01 00:56:42;;;;;;;3.15;1.35;;;15.10;93.10;;;;;;5028630;28;20042;-46
2022/09/01 00:59:10;;;;;;;1.65;1.10;;;15.20;93.10;;;;;;5049664;28;20060;-45
2022/09/01 01:01:36;;;;;;;1.92;1.15;;;15.00;93.00;;;;;;5049845;28;20099;-46
2022/09/01 01:04:05;;;;;;;7.97;1.38;;;15.00;93.10;;;;;;5033376;28;20127;-45
2022/09/01 01:06:32;;;;;;;3.70;1.27;;;15.00;93.40;;;;;;5049718;28;20136;-46
2022/09/01 01:09:00;;;;;;;4.00;1.20;;;14.90;93.20;;;;;;5051575;28;20049;-42
2022/09/01 01:11:28;;;;;;;1.20;1.10;;;14.90;93.20;;;;;;5051758;28;20052;-46
2022/09/01 01:13:56;;;;;;;2.25;1.30;;;14.80;93.30;;;;;;5050873;28;20048;-45
2022/09/01 01:16:23;;;;;;;10.13;1.40;;;14.80;93.10;;;;;;5050547;28;20076;-43
2022/09/01 01:18:51;;;;;;;2.50;1.30;;;14.80;93.30;;;;;;5046153;28;20414;-46
2022/09/01 01:24:09;;;;;;;3.08;1.10;;;14.80;93.10;;;;;;5035832;28;20049;-42
2022/09/01 01:26:37;;;;;;;4.63;1.33;;;14.80;93.10;;;;;;5041621;28;20042;-45
2022/09/01 01:29:05;;;;;;;3.58;1.20;;;14.70;93.00;;;;;;5036284;28;20103;-47
2022/09/01 01:31:32;;;;;;;2.78;1.30;;;14.70;92.90;;;;;;5033319;28;20055;-46
2022/09/01 01:34:00;;;;;;;3.45;1.52;;;14.70;93.00;;;;;;5037338;28;20075;-50
2022/09/01 01:36:31;;;;;;;3.63;1.50;;;14.70;93.30;;;;;;5038204;28;20060;-42
2022/09/01 01:39:01;;;;;;;4.45;1.50;;;14.60;93.30;;;;;;5041454;28;20068;-48
2022/09/01 01:41:28;;;;;;;4.85;1.25;;;14.60;93.40;;;;;;5055873;28;20137;-47
2022/09/01 01:43:58;;;;;;;1.75;1.17;;;14.60;93.30;;;;;;5053375;28;20123;-44
2022/09/01 01:46:25;;;;;;;3.17;1.10;;;14.50;93.40;;;;;;5035060;28;20143;-47
2022/09/01 01:48:52;;;;;;;2.40;1.48;;;14.50;93.10;;;;;;5046096;28;20048;-47
2022/09/01 01:51:20;;;;;;;2.00;1.10;;;14.50;93.00;;;;;;5037293;28;20049;-48
2022/09/01 01:53:46;;;;;;;4.32;1.40;;;14.50;93.00;;;;;;5053330;28;20048;-46
2022/09/01 01:56:13;;;;;;;3.90;1.58;;;14.40;93.20;;;;;;5055401;28;20072;-45
2022/09/01 01:58:40;;;;;;;1.83;1.10;;;14.40;93.30;;;;;;5034643;28;20045;-47
2022/09/01 02:01:10;;;;;;;3.80;1.17;;;14.40;93.10;;;;;;5046260;28;20499;-47
2022/09/01 02:03:38;;;;;;;3.50;1.30;;;14.40;93.20;;;;;;5037443;28;20093;-50
2022/09/01 02:06:07;;;;;;;5.65;1.48;;;14.30;93.30;;;;;;5027012;28;20067;-47
2022/09/01 02:08:34;;;;;;;4.68;1.25;;;14.30;93.70;;;;;;5018903;28;20057;-45
2022/09/01 02:11:01;;;;;;;3.45;1.10;;;14.20;93.60;;;;;;5054503;28;20069;-47
2022/09/01 02:13:29;;;;;;;3.92;1.25;;;14.20;93.50;;;;;;5052971;28;20077;-47
2022/09/01 02:15:57;;;;;;;1.77;1.13;;;14.10;93.40;;;;;;5034743;28;20045;-45
2022/09/01 02:18:27;;;;;;;3.10;1.15;;;14.10;93.50;;;;;;5036033;28;20041;-42
2022/09/01 02:20:54;;;;;;;3.67;1.20;;;14.20;93.40;;;;;;5054031;28;20477;-44
2022/09/01 02:23:23;;;;;;;2.20;1.30;;;14.10;93.40;;;;;;5052879;28;20092;-44
2022/09/01 02:25:52;;;;;;;2.17;1.48;;;14.10;93.30;;;;;;5053993;28;20127;-46
2022/09/01 02:28:20;;;;;;;3.28;1.40;;;14.10;93.70;;;;;;5035782;28;20056;-48
2022/09/01 02:30:48;;;;;;;2.92;1.10;;;14.10;93.40;;;;;;5050646;28;20041;-44
2022/09/01 02:33:18;;;;;;;2.25;1.02;;;14.10;93.30;;;;;;5024890;28;20044;-46
2022/09/01 02:35:46;;;;;;;2.65;1.40;;;14.00;93.40;;;;;;5052831;28;20049;-46
2022/09/01 02:38:13;;;;;;;1.50;1.10;;;14.00;93.40;;;;;;5036722;28;20044;-46
2022/09/01 02:40:44;;;;;;;1.85;1.10;;;13.90;93.30;;;;;;5052509;28;20469;-43
2022/09/01 02:43:12;;;;;;;3.05;1.30;;;13.90;93.30;;;;;;5035798;28;20098;-48
2022/09/01 02:45:43;;;;;;;2.63;1.30;;;13.90;93.20;;;;;;5054059;28;20040;-47
2022/09/01 02:48:10;;;;;;;2.75;1.38;;;13.90;93.40;;;;;;5045714;28;20139;-46
2022/09/01 02:50:37;;;;;;;1.73;1.00;;;13.90;93.40;;;;;;5034303;28;20033;-46
2022/09/01 02:53:08;;;;;;;2.50;1.42;;;13.90;93.70;;;;;;5054048;28;20048;-42
2022/09/01 02:55:35;;;;;;;;;;;13.80;93.80;;;;;;5035920;28;20059;-45
2022/09/01 02:58:02;;;;;;;2.40;1.25;;;13.80;93.10;;;;;;5036669;28;19959;-46
2022/09/01 03:00:30;;;;;;;3.72;1.58;;;13.70;93.90;;;;;;5052437;28;20088;-46
2022/09/01 03:02:57;;;;;;;2.83;1.13;;;13.70;94.10;;;;;;5053526;28;20057;-45
2022/09/01 03:05:25;;;;;;;4.55;1.48;;;13.70;94.00;;;;;;5038281;28;20041;-46
2022/09/01 03:07:55;;;;;;;4.22;1.50;;;13.70;94.10;;;;;;5047411;28;20041;-46
2022/09/01 03:10:31;;;;;;;2.75;1.10;;;13.70;94.20;;;;;;5053280;28;20045;-47
2022/09/01 03:13:01;;;;;;;1.77;1.30;;;13.70;94.30;;;;;;5052749;28;20052;-47
2022/09/01 03:15:28;;;;;;;3.38;1.40;;;13.60;94.30;;;;;;5053295;28;20489;-45
2022/09/01 03:17:58;;;;;;;4.38;1.33;;;13.70;94.50;;;;;;5052511;28;20076;-48
2022/09/01 03:20:25;;;;;;;3.17;1.48;;;13.70;94.60;;;;;;5049326;28;20064;-46
2022/09/01 03:22:52;;;;;;;4.93;1.20;;;13.70;94.50;;;;;;5035379;28;20089;-45
2022/09/01 03:25:19;;;;;;;1.98;1.23;;;13.70;94.40;;;;;;5034960;28;20473;-47
2022/09/01 03:27:47;;;;;;;3.70;1.50;;;13.70;94.50;;;;;;5034002;28;20128;-42
2022/09/01 03:30:14;;;;;;;2.08;1.30;;;13.60;94.70;;;;;;5049663;28;20127;-47
2022/09/01 03:32:41;;;;;;;2.95;1.40;;;13.60;94.70;;;;;;5051555;28;20548;-38
2022/09/01 03:35:08;;;;;;;2.75;1.50;;;13.60;94.50;;;;;;5032395;28;20532;-46
2022/09/01 03:37:36;;;;;;;3.70;1.73;;;13.60;94.90;;;;;;5035788;28;20124;-44
2022/09/01 03:40:04;;;;;;;1.35;1.20;;;13.50;95.30;;;;;;5035660;28;20409;-44
2022/09/01 03:42:31;;;;;;;1.67;1.20;;;13.50;95.20;;;;;;5052803;28;20084;-47
2022/09/01 03:45:02;;;;;;;2.03;1.50;;;13.50;94.90;;;;;;5022285;28;20050;-47
2022/09/01 03:47:29;;;;;;;1.98;1.38;;;13.50;94.90;;;;;;5044734;28;20135;-45
2022/09/01 03:49:57;;;;;;;3.22;1.50;;;13.50;94.90;;;;;;5051719;28;20389;-46
2022/09/01 03:52:24;;;;;;;3.17;1.60;;;13.50;94.90;;;;;;5052797;28;20040;-49
2022/09/01 03:54:52;;;;;;;4.68;2.03;;;13.50;95.10;;;;;;5052395;28;20481;-43
2022/09/01 03:57:19;;;;;;;3.92;1.52;;;13.50;95.30;;;;;;5033889;28;20114;-44
2022/09/01 03:59:46;;;;;;;1.95;1.20;;;13.50;95.40;;;;;;5033550;28;20048;-49
2022/09/01 04:02:14;;;;;;;3.53;1.42;;;13.50;95.30;;;;;;5050477;28;20510;-48
2022/09/01 04:04:41;;;;;;;2.67;1.58;;;13.50;95.00;;;;;;5033798;28;20049;-49
2022/09/01 04:07:08;;;;;;;4.28;1.90;;;13.50;95.20;;;;;;5051521;28;20098;-45
2022/09/01 04:09:35;;;;;;;2.47;1.58;;;13.50;95.30;;;;;;5033838;28;20073;-46
2022/09/01 04:12:05;;;;;;;4.63;1.83;;;13.50;95.20;;;;;;5024297;28;20447;-45
2022/09/01 04:14:31;;;;;;;3.10;1.90;;;13.50;95.20;;;;;;5051425;28;20053;-43
2022/09/01 04:19:44;;;;;;;2.97;1.80;;;13.50;95.70;;;;;;5051648;28;20123;-46
2022/09/01 04:22:16;;;;;;;4.28;1.73;;;13.50;95.60;;;;;;5032697;28;20527;-46
2022/09/01 04:24:44;;;;;;;2.33;1.50;;;13.40;95.70;;;;;;5051108;28;20041;-45
2022/09/01 04:27:11;;;;;;;2.92;1.50;;;13.40;95.70;;;;;;5043773;28;20045;-44
2022/09/01 04:29:38;;;;;;;2.42;1.55;;;13.40;95.50;;;;;;5050841;28;20098;-48
2022/09/01 04:32:05;;;;;;;6.45;1.60;;;13.40;95.40;;;;;;5050067;28;20532;-47
2022/09/01 04:34:35;;;;;;;2.97;1.60;;;13.40;95.40;;;;;;5051151;28;20487;-45
2022/09/01 04:37:06;;;;;;;7.45;1.63;;;13.40;95.50;;;;;;5050663;28;20036;-42
2022/09/01 04:39:35;;;;;;;3.75;1.95;;;13.50;95.50;;;;;;5049335;28;20041;-45
2022/09/01 04:42:05;;;;;;;4.65;1.60;;;13.40;95.50;;;;;;5050129;28;20383;-46
2022/09/01 04:44:32;;;;;;;3.08;1.33;;;13.50;95.70;;;;;;5042051;28;20049;-46
2022/09/01 04:46:59;;;;;;;3.85;1.55;;;13.50;95.50;;;;;;5043630;28;20107;-45
2022/09/01 04:49:25;;;;;;;3.25;1.52;;;13.50;95.50;;;;;;5048175;28;20366;-44
2022/09/01 04:51:53;;;;;;;3.90;1.73;;;13.50;95.40;;;;;;5046427;28;20422;-49
2022/09/01 04:54:21;;;;;;;2.58;1.42;;;13.50;95.40;;;;;;5043138;28;20037;-44
2022/09/01 04:56:49;;;;;;;3.97;1.55;;;13.50;95.40;;;;;;5029845;28;20232;-38
2022/09/01 04:59:19;;;;;;;3.03;1.77;;;13.50;95.50;;;;;;5042414;28;20048;-41
2022/09/01 05:01:45;;;;;;;5.00;1.80;;;13.50;95.50;;;;;;5046281;28;20386;-41
2022/09/01 05:04:13;;;;;;;3.65;1.40;;;13.50;95.70;;;;;;5048101;28;20049;-43
2022/09/01 05:06:41;;;;;;;5.75;1.80;;;13.50;95.70;;;;;;5050138;28;20045;-39
2022/09/01 05:09:09;;;;;;;6.00;1.60;;;13.50;95.80;;;;;;5050730;28;20396;-41
2022/09/01 05:11:38;;;;;;;3.85;1.45;;;13.50;95.90;;;;;;5051585;28;20080;-41
2022/09/01 05:14:05;;;;;;;5.47;2.35;;;13.50;95.80;;;;;;5051772;28;20370;-46
2022/09/01 05:16:33;;;;;;;6.20;1.77;;;13.50;96.10;;;;;;5046868;28;20049;-46
2022/09/01 05:19:00;;;;;;;2.85;1.48;;;13.50;96.10;;;;;;5031468;28;20059;-48
2022/09/01 05:21:28;;;;;;;5.03;1.90;;;13.50;95.90;;;;;;5047696;28;20431;-39
2022/09/01 05:23:55;;;;;;;4.43;1.67;;;13.50;96.10;;;;;;5051576;28;20476;-43
2022/09/01 05:26:23;;;;;;;2.42;1.67;;;13.50;96.20;;;;;;5034205;28;20103;-48
2022/09/01 05:28:53;;;;;;;4.55;1.60;;;13.50;96.10;;;;;;5037510;28;20046;-44
2022/09/01 05:31:20;;;;;;;2.20;1.40;;;13.50;96.00;;;;;;5051262;28;20044;-42
2022/09/01 05:33:48;;;;;;;5.22;2.15;;;13.50;95.90;;;;;;5041335;28;20136;-41
2022/09/01 05:36:16;;;;;;;2.38;1.58;;;13.50;96.00;;;;;;5027534;28;20048;-49
2022/09/01 05:38:43;;;;;;;2.95;1.80;;;13.50;96.20;;;;;;5051188;28;20508;-43
2022/09/01 05:41:13;;;;;;;5.00;1.88;;;13.50;96.40;;;;;;5051705;28;20049;-45
2022/09/01 05:43:45;;;;;;;3.25;1.77;;;13.50;96.40;;;;;;5052069;28;20135;-44
2022/09/01 05:46:15;;;;;;;6.50;2.00;;;13.50;96.40;;;;;;5033427;28;20049;-45
2022/09/01 05:48:42;;;;;;;3.25;1.80;;;13.50;96.60;;;;;;5050586;28;20048;-45
2022/09/01 05:51:09;;;;;;;4.07;2.10;;;13.60;96.60;;;;;;5033704;28;20053;-39
2022/09/01 05:53:36;;;;;;;6.65;2.20;;;13.60;96.50;;;;;;5043372;28;20080;-45
2022/09/01 05:56:06;;;;;;;4.32;2.28;;;13.60;96.50;;;;;;5032191;28;20392;-44
2022/09/01 05:58:34;;;;;;;4.03;2.22;;;13.60;96.70;;;;;;5045325;28;20037;-43
2022/09/01 06:01:00;;;;;;;3.50;1.65;;;13.60;96.90;;;;;;5051461;28;20072;-44
2022/09/01 06:03:30;;;;;;;4.57;1.83;;;13.60;96.90;;;;;;5032287;28;20068;-39
2022/09/01 06:06:02;;;;;;;3.47;1.80;;;13.70;97.00;;;;;;5035806;28;20052;-44
2022/09/01 06:08:28;;;;;;;6.18;1.75;;;13.80;97.10;;;;;;5050504;28;20056;-45
2022/09/01 06:10:55;;;;;;;4.32;2.15;;;13.90;97.10;;;;;;5053866;28;20126;-43
2022/09/01 06:13:22;;;;;;;5.80;2.88;;;13.90;97.10;;;;;;5055089;28;20041;-44
2022/09/01 06:15:49;;;;;;;7.45;2.03;;;14.10;97.10;;;;;;5036420;28;20077;-45
2022/09/01 06:18:17;;;;;;;2.60;1.70;;;14.20;96.80;;;;;;5054406;28;20071;-45
2022/09/01 06:20:46;;;;;;;5.00;2.35;;;14.30;96.90;;;;;;5031064;28;20045;-44
2022/09/01 06:23:16;;;;;;;2.90;2.17;;;14.40;97.00;;;;;;5034682;28;20043;-46
2022/09/01 06:25:45;;;;;;;4.53;2.17;;;14.50;96.90;;;;;;5035778;28;20047;-40
2022/09/01 06:28:13;;;;;;;3.83;2.10;;;14.60;96.80;;;;;;5036170;28;20048;-43
2022/09/01 06:30:41;;;;;;;6.47;2.00;;;14.70;96.80;;;;;;5050295;28;20564;-45
2022/09/01 06:33:09;;;;;;;6.07;1.90;;;14.80;96.70;;;;;;5034491;28;20071;-42
2022/09/01 06:35:37;;;;;;;4.40;1.90;;;14.90;96.70;;;;;;5048520;28;20052;-47
2022/09/01 06:38:06;;;;;;;3.13;1.92;;;15.00;96.70;;;;;;5054165;28;20059;-48
2022/09/01 06:40:34;;;;;;;2.92;1.85;;;15.20;96.60;;;;;;5053703;28;20051;-45
2022/09/01 06:43:01;;;;;;;2.28;1.60;;;15.20;96.50;;;;;;5036093;28;20049;-45
2022/09/01 06:45:27;;;;;;;5.18;1.92;;;15.30;96.40;;;;;;5053342;28;20052;-49
2022/09/01 06:47:56;;;;;;;2.72;1.75;;;15.40;96.40;;;;;;5050703;28;20095;-42
2022/09/01 06:50:23;;;;;;;6.72;2.08;;;15.50;96.30;;;;;;5044582;28;20048;-48
2022/09/01 06:53:00;;;;;;;3.25;1.83;;;15.60;96.30;;;;;;5033442;28;20041;-47
2022/09/01 06:55:30;;;;;;;6.45;1.95;;;15.80;96.20;;;;;;5048372;28;20549;-40
2022/09/01 06:57:57;;;;;;;3.15;1.60;;;15.90;96.00;;;;;;5016657;28;20129;-42
2022/09/01 07:00:27;;;;;;;3.55;1.77;;;16.00;95.90;;;;;;5051025;28;20049;-48
2022/09/01 07:02:55;;;;;;;2.42;1.70;;;16.10;95.80;;;;;;5048534;28;20036;-39
2022/09/01 07:05:22;;;;;;;2.25;1.48;;;16.30;95.70;;;;;;5036323;28;20412;-48
2022/09/01 07:07:50;;;;;;;6.43;1.60;;;16.40;95.60;;;;;;5054124;28;20049;-46
2022/09/01 07:10:21;;;;;;;3.60;1.90;;;16.60;95.50;;;;;;5051687;28;20045;-42
2022/09/01 07:12:49;;;;;;;3.58;1.70;;;16.70;95.30;;;;;;5053994;28;20041;-44
2022/09/01 07:15:16;;;;;;;5.93;2.20;;;16.80;95.10;;;;;;5052468;28;20124;-40
2022/09/01 07:17:45;;;;;;;5.28;1.70;;;16.90;94.80;;;;;;5035111;28;20091;-44
2022/09/01 07:20:12;;;;;;;4.68;1.70;;;17.00;94.70;;;;;;5016655;28;20488;-42
2022/09/01 07:22:41;;;;;;;4.15;1.70;;;17.10;94.70;;;;;;5052517;28;20045;-37
2022/09/01 07:25:09;;;;;;;3.38;1.70;;;17.30;94.40;;;;;;5046472;28;20128;-39
2022/09/01 07:27:36;;;;;;;3.78;1.40;;;17.40;93.90;;;;;;5051763;28;20045;-47
2022/09/01 07:30:08;;;;;;;5.35;2.20;;;17.50;93.90;;;;;;5035650;28;20140;-40
2022/09/01 07:32:35;;;;;;;2.83;1.30;;;17.60;93.70;;;;;;5053241;28;20423;-46
2022/09/01 07:35:03;;;;;;;3.90;1.42;;;17.80;93.60;;;;;;5050299;28;20041;-41
2022/09/01 07:37:30;;;;;;;5.55;1.40;;;17.90;93.40;;;;;;5045657;28;20088;-40
2022/09/01 07:39:58;;;;;;;5.10;1.60;;;18.10;93.20;;;;;;5034935;28;20473;-38
2022/09/01 07:42:25;;;;;;;3.33;1.50;;;18.20;93.10;;;;;;5051754;28;20400;-45
2022/09/01 07:44:52;;;;;;;3.78;1.50;;;18.40;92.80;;;;;;5048388;28;20037;-41
2022/09/01 07:47:21;;;;;;;2.95;1.40;;;18.50;92.60;;;;;;5030704;28;20362;-49
2022/09/01 07:49:48;;;;;;;2.28;1.20;;;18.60;92.30;;;;;;5030856;28;20036;-49
2022/09/01 07:52:16;;;;;;;4.45;1.70;;;18.70;91.90;;;;;;5035827;28;20533;-47
2022/09/01 07:54:43;;;;;;;3.83;1.40;;;18.80;91.90;;;;;;5053363;28;20049;-41
2022/09/01 07:57:10;;;;;;;5.38;1.92;;;18.90;92.00;;;;;;5035742;28;20063;-42
2022/09/01 07:59:38;;;;;;;3.90;1.63;;;19.10;91.60;;;;;;5034324;28;20052;-46
2022/09/01 08:02:05;;;;;;;3.22;1.60;;;19.20;91.40;;;;;;5052854;28;20084;-37
2022/09/01 08:04:33;;;;;;;4.43;1.70;;;19.30;91.20;;;;;;5036338;28;20049;-49
2022/09/01 08:07:00;;;;;;;3.53;1.40;;;19.30;90.90;;;;;;5045605;28;20053;-48
2022/09/01 08:09:27;;;;;;;4.93;1.55;;;19.50;90.80;;;;;;5035340;28;20055;-45
2022/09/01 08:11:54;;;;;;;5.25;1.60;;;19.60;90.40;;;;;;5038975;28;20056;-46
2022/09/01 08:14:20;;;;;;;3.20;1.52;;;19.70;90.20;;;;;;5043189;28;20123;-40
2022/09/01 08:16:47;;;;;;;12.40;1.50;;;19.80;90.10;;;;;;5030477;28;20077;-39
2022/09/01 08:19:14;;;;;;;2.05;1.40;;;19.90;89.70;;;;;;5028082;28;20137;-45
2022/09/01 08:21:42;;;;;;;5.38;1.60;;;20.00;89.70;;;;;;5044330;28;20109;-46
2022/09/01 08:24:09;;;;;;;4.25;1.63;;;20.10;89.20;;;;;;5045368;28;20077;-47
2022/09/01 08:26:36;;;;;;;4.88;1.40;;;20.30;88.60;;;;;;5032929;28;20132;-43
2022/09/01 08:29:03;;;;;;;5.07;1.48;;;20.50;88.90;;;;;;5047904;28;20041;-43
2022/09/01 08:31:30;;;;;;;3.83;1.38;;;20.70;87.70;;;;;;5039322;28;20141;-41
2022/09/01 08:33:57;;;;;;;5.30;1.30;;;20.80;87.30;;;;;;5032629;28;20072;-42
2022/09/01 08:36:23;;;;;;;5.78;1.33;;;20.90;87.40;;;;;;5050461;28;20041;-45
2022/09/01 08:38:51;;;;;;;2.47;1.40;;;21.00;86.50;;;;;;5052331;28;20148;-45
2022/09/01 08:41:20;;;;;;;4.20;1.20;;;21.10;86.00;;;;;;5050576;28;20053;-45
2022/09/01 08:43:53;;;;;;;2.40;1.25;;;21.30;85.60;;;;;;5050288;28;20068;-44
2022/09/01 08:46:23;;;;;;;3.63;1.23;;;21.40;84.80;;;;;;5045947;28;20054;-44
2022/09/01 08:48:51;;;;;;;4.50;1.20;;;21.60;83.50;;;;;;5048536;28;20080;-45
2022/09/01 08:51:21;;;;;;;2.95;1.13;;;21.70;83.80;;;;;;5050080;28;20052;-45
2022/09/01 08:53:52;;;;;;;2.65;0.90;;;21.90;82.70;;;;;;5045050;28;20124;-42
2022/09/01 08:56:19;;;;;;;1.90;1.00;;;22.00;82.70;;;;;;5051411;28;20112;-45
2022/09/01 08:58:46;;;;;;;4.47;1.20;;;22.20;82.30;;;;;;5050030;28;20045;-45
2022/09/01 09:01:18;;;;;;;2.60;1.27;;;22.30;81.30;;;;;;5050642;28;20080;-48
2022/09/01 09:03:49;;;;;;;2.10;0.85;;;22.40;79.80;;;;;;5049917;28;20085;-43
2022/09/01 09:06:17;;;;;;;;;;;22.50;80.00;;;;;;5047509;28;20132;-40
2022/09/01 09:08:56;;;;;;;2.88;1.10;;;22.60;79.30;;;;;;5030292;28;19960;-43
2022/09/01 09:11:44;;;;;;;3.65;0.95;;;22.70;77.30;;;;;;5049167;28;20059;-45
2022/09/01 09:14:14;;;;;;;2.03;0.90;;;22.80;79.30;;;;;;5047911;28;20485;-45
2022/09/01 09:16:42;;;;;;;5.38;0.80;;;22.90;78.70;;;;;;5049514;28;20441;-47
2022/09/01 09:19:10;;;;;;;0.90;0.75;;;23.10;77.60;;;;;;5031677;28;20045;-45
2022/09/01 09:21:38;;;;;;;2.80;0.80;;;23.20;76.50;;;;;;5017539;28;20123;-43
2022/09/01 09:24:10;;;;;;;4.20;1.20;;;23.30;75.80;;;;;;5052307;28;20080;-45
2022/09/01 09:26:37;;;;;;;2.67;0.95;;;23.40;75.30;;;;;;5034730;28;20054;-46
2022/09/01 09:29:03;;;;;;;5.93;1.10;;;23.50;74.30;;;;;;5034154;28;20095;-46
2022/09/01 09:31:32;;;;;;;3.47;0.77;;;23.70;73.30;;;;;;5034108;28;20131;-46
2022/09/01 09:33:59;;;;;;;2.95;0.75;;;23.80;72.20;;;;;;5024550;28;20127;-47
2022/09/01 09:36:30;;;;;;;4.15;0.77;;;23.80;71.10;;;;;;5033506;28;20128;-49
2022/09/01 09:39:10;;;;;;;5.80;0.85;;;23.90;70.60;;;;;;5054691;28;20049;-46
2022/09/01 09:41:37;;;;;;;2.55;0.80;;;23.90;70.60;;;;;;5037111;28;20483;-49
2022/09/01 09:44:06;;;;;;;3.65;0.85;;;24.10;70.90;;;;;;5054935;28;20477;-47
2022/09/01 09:46:36;;;;;;;2.40;0.70;;;24.20;69.20;;;;;;5053263;28;20149;-49
2022/09/01 09:49:12;;;;;;;3.20;0.90;;;24.20;68.20;;;;;;5055134;28;20810;-46
2022/09/01 09:51:39;;;;;;;1.60;0.70;;;24.20;68.10;;;;;;5034736;28;20044;-41
2022/09/01 09:54:15;;;;;;;2.20;0.70;;;24.30;68.10;;;;;;5053219;28;20839;-43
2022/09/01 09:56:44;;;;;;;3.40;0.80;;;24.40;66.30;;;;;;5049166;28;20073;-45
2022/09/01 09:59:23;;;;;;;5.05;0.70;;;24.40;66.60;;;;;;5053910;28;20041;-45
2022/09/01 10:01:52;;;;;;;3.92;0.75;;;24.50;67.30;;;;;;5044607;28;20040;-43
2022/09/01 10:04:33;;;;;;;2.75;0.63;;;24.60;66.30;;;;;;5026316;28;20060;-44
2022/09/01 10:06:59;;;;;;;2.97;0.80;;;24.70;65.20;;;;;;5033709;28;20946;-45
2022/09/01 10:09:36;;;;;;;2.20;0.68;;;24.70;64.70;;;;;;5047328;28;20040;-43
2022/09/01 10:12:04;;;;;;;2.78;0.63;;;24.70;63.70;;;;;;5044751;28;20049;-42
2022/09/01 10:14:33;;;;;;;1.42;0.60;;;24.60;63.60;;;;;;5047449;28;20427;-43
2022/09/01 10:17:02;;;;;;;5.43;1.00;;;24.60;63.10;;;;;;5047042;28;20381;-40
2022/09/01 10:19:29;;;;;;;7.68;0.75;;;24.70;64.40;;;;;;5045179;28;20166;-47
2022/09/01 10:21:56;;;;;;;1.52;0.60;;;24.80;63.30;;;;;;5045812;28;20051;-49
2022/09/01 10:24:25;;;;;;;4.85;0.70;;;24.80;62.20;;;;;;5046674;28;20083;-49
2022/09/01 10:26:55;;;;;;;3.67;1.25;;;24.90;62.10;;;;;;5048197;28;20044;-40
2022/09/01 10:29:24;;;;;;;1.77;0.63;;;25.00;62.10;;;;;;5025543;28;20080;-47
2022/09/01 10:31:51;;;;;;;3.65;0.63;;;25.20;62.00;;;;;;5049662;28;20055;-48
2022/09/01 10:34:18;;;;;;;5.05;0.82;;;25.20;60.60;;;;;;5053074;28;20040;-47
2022/09/01 10:36:45;;;;;;;1.33;0.70;;;25.20;60.00;;;;;;5047215;28;20059;-45
2022/09/01 10:39:12;;;;;;;3.00;0.57;;;25.30;60.20;;;;;;5025304;28;20131;-46
2022/09/01 10:41:50;;;;;;;2.97;0.70;;;25.10;59.50;;;;;;5053503;28;20077;-48
2022/09/01 10:44:24;;;;;;;3.78;0.85;;;25.20;61.10;;;;;;5032278;28;20049;-46
2022/09/01 10:46:51;;;;;;;1.30;0.90;;;25.30;60.70;;;;;;5032273;28;20064;-46
2022/09/01 10:49:50;;;;;;;4.53;0.50;;;25.40;59.60;;;;;;5039902;28;20073;-44
2022/09/01 10:52:58;;;;;;;2.58;0.60;;;25.50;59.30;;;;;;5047611;28;20493;-40
2022/09/01 10:55:26;;;;;;;5.15;1.00;;;25.50;57.80;;;;;;5042771;28;20045;-48
2022/09/01 10:58:01;;;;;;;1.02;0.63;;;25.60;57.80;;;;;;5053168;28;20083;-47
2022/09/01 11:00:49;;;;;;;2.90;0.60;;;25.70;58.50;;;;;;5052825;28;20412;-35
2022/09/01 11:03:52;;;;;;;1.80;0.82;;;25.80;56.70;;;;;;5054445;28;20080;-47
2022/09/01 11:06:57;;;;;;;1.48;0.60;;;25.60;57.60;;;;;;5045473;28;20068;-45
2022/09/01 11:09:26;;;;;;;2.97;0.63;;;25.40;59.60;;;;;;5035312;28;20131;-49
2022/09/01 11:12:19;;;;;;;3.15;0.60;;;25.20;59.10;;;;;;5052863;28;20554;-47
2022/09/01 11:14:50;;;;;;;7.22;0.75;;;25.30;59.80;;;;;;5053971;28;20094;-48
2022/09/01 11:17:19;;;;;;;;;;;25.40;58.50;;;;;;5035907;28;20080;-46
2022/09/01 11:19:47;;;;;;;6.43;0.93;;;25.40;57.30;;;;;;5052178;28;19924;-45
2022/09/01 11:22:24;;;;;;;3.08;0.60;;;25.40;57.90;;;;;;5042270;28;20535;-45
2022/09/01 11:25:06;;;;;;;4.00;0.70;;;25.50;57.50;;;;;;5053092;28;20037;-43
2022/09/01 11:28:06;;;;;;;;;;;25.40;56.80;;;;;;5052591;28;20048;-47
2022/09/01 11:30:50;;;;;;;3.08;0.70;;;25.10;55.70;;;;;;5010606;28;20286;-44
2022/09/01 11:33:32;;;;;;;2.95;0.60;;;24.90;57.20;;;;;;5010871;28;20069;-46
2022/09/01 11:36:01;;;;;;;5.05;0.80;;;24.80;58.50;;;;;;5038476;28;20127;-45
2022/09/01 11:38:28;;;;;;;4.35;0.80;;;24.70;58.60;;;;;;5030493;28;20118;-44
2022/09/01 11:40:56;;;;;;;4.13;0.52;;;24.90;58.50;;;;;;5053309;28;20388;-46
2022/09/01 11:43:22;;;;;;;6.93;0.93;;;25.10;57.90;;;;;;5052549;28;20106;-45
2022/09/01 11:45:53;;;;;;;2.60;0.65;;;25.40;57.70;;;;;;5052144;28;20057;-47
2022/09/01 11:48:20;;;;;;;2.70;0.68;;;25.50;56.80;;;;;;5029875;28;20084;-46
2022/09/01 11:50:49;;;;;;;3.55;0.60;;;25.70;57.20;;;;;;5052508;28;20056;-45
2022/09/01 11:53:22;;;;;;;2.90;0.95;;;25.80;55.80;;;;;;5046416;28;20091;-45
2022/09/01 11:55:50;;;;;;;2.63;0.82;;;25.80;56.10;;;;;;5051827;28;20041;-43
2022/09/01 11:58:31;;;;;;;2.78;0.50;;;25.90;55.80;;;;;;5052668;28;20115;-47
2022/09/01 12:01:11;;;;;;;1.77;0.60;;;25.90;55.10;;;;;;5051172;28;20059;-45
2022/09/01 12:03:37;;;;;;;6.43;1.20;;;25.80;55.70;;;;;;5045217;28;20041;-43
2022/09/01 12:06:07;;;;;;;4.70;0.60;;;25.70;55.70;;;;;;5049921;28;20110;-45
2022/09/01 12:08:36;;;;;;;6.22;0.82;;;25.60;56.70;;;;;;5052019;28;20069;-46
2022/09/01 12:11:04;;;;;;;2.13;0.70;;;25.60;56.90;;;;;;5043857;28;20087;-43
2022/09/01 12:13:30;;;;;;;3.13;0.73;;;25.60;56.60;;;;;;5049983;28;20393;-40
2022/09/01 12:15:58;;;;;;;5.45;0.80;;;25.50;55.80;;;;;;5050359;28;20139;-45
2022/09/01 12:18:27;;;;;;;4.78;0.70;;;25.50;55.50;;;;;;5051754;28;20103;-45
2022/09/01 12:20:56;;;;;;;4.97;1.00;;;25.40;56.40;;;;;;5051156;28;20040;-43
2022/09/01 12:23:28;;;;;;;3.95;0.88;;;25.50;56.60;;;;;;5048191;28;20056;-43
2022/09/01 12:25:55;;;;;;;6.28;0.70;;;25.50;56.00;;;;;;5031402;28;20124;-45
2022/09/01 12:28:23;;;;;;;4.90;0.70;;;25.70;56.10;;;;;;5047113;28;20053;-42
2022/09/01 12:30:50;;;;;;;2.85;0.70;;;25.90;56.00;;;;;;5049611;28;20132;-45
2022/09/01 12:33:17;;;;;;;4.53;1.10;;;26.10;55.20;;;;;;5050723;28;20123;-45
2022/09/01 12:35:45;;;;;;;7.00;1.23;;;26.20;55.30;;;;;;5028698;28;20127;-43
2022/09/01 12:38:25;;;;;;;2.10;0.52;;;26.00;55.00;;;;;;5034153;28;20049;-41
2022/09/01 12:40:53;;;;;;;3.65;0.85;;;25.80;55.30;;;;;;5040845;28;20049;-45
2022/09/01 12:43:37;;;;;;;8.52;1.23;;;25.60;56.40;;;;;;5041048;28;20128;-45
2022/09/01 12:46:05;;;;;;;6.38;1.00;;;25.60;57.00;;;;;;5046337;28;20180;-45
2022/09/01 12:48:33;;;;;;;4.68;0.68;;;25.50;56.60;;;;;;5051091;28;20037;-43
2022/09/01 12:51:00;;;;;;;1.83;0.60;;;25.60;56.70;;;;;;5050128;28;20066;-43
2022/09/01 12:53:30;;;;;;;1.88;0.50;;;25.60;56.10;;;;;;5034555;28;20084;-45
2022/09/01 12:56:17;;;;;;;4.07;0.70;;;25.40;55.60;;;;;;5051152;28;20048;-43
2022/09/01 12:58:47;;;;;;;2.55;0.70;;;25.40;55.60;;;;;;5044890;28;20157;-45
2022/09/01 13:01:24;;;;;;;4.63;0.68;;;25.30;55.90;;;;;;5049645;28;20057;-38
2022/09/01 13:04:07;;;;;;;4.10;0.93;;;25.40;55.00;;;;;;5031757;28;20124;-45